Time;durP1;ratioP1;P1;durP2;ratioP2;P2;SDS_P1;SDS_P2;PMS_P1;PMS_P2;Temp;Humidity;BMP_temperature;BMP_pressure;BME280_temperature;BME280_humidity;BME280_pressure;Samples;Min_cycle;Max_cycle;Signal;HPM_P1;HPM_P2
2022/12/22 03:26:57;;;;;;;1.13;1.03;;;;;;;1.63;68.71;95569.50;5114623;28;20444;-58
2022/12/22 03:29:26;;;;;;;0.77;0.77;;;;;;;1.90;68.31;95584.03;5115022;28;20511;-58
2022/12/22 03:31:54;;;;;;;6.27;0.83;;;;;;;1.78;68.07;95554.34;5114822;28;20412;-58
2022/12/22 03:34:24;;;;;;;0.40;0.40;;;;;;;1.77;68.60;95582.28;5114843;28;20510;-58
2022/12/22 03:36:52;;;;;;;0.63;0.63;;;;;;;0.67;69.29;95413.84;5114714;28;20515;-58
2022/12/22 03:39:20;;;;;;;1.83;1.70;;;;;;;1.19;70.38;95494.53;5114550;28;20859;-58
2022/12/22 03:47:28;;;;;;;0.50;0.50;;;;;;;2.08;68.37;95578.13;5113758;28;20452;-58
2022/12/22 03:49:58;;;;;;;6.53;0.77;;;;;;;1.93;68.12;95573.19;5114100;28;20468;-58
2022/12/22 03:52:26;;;;;;;0.60;0.60;;;;;;;1.73;69.58;95575.09;5114646;28;20474;-58
2022/12/22 03:54:54;;;;;;;0.90;0.40;;;;;;;1.64;70.26;95573.72;5114448;28;20938;-58
2022/12/22 03:57:23;;;;;;;2.43;1.67;;;;;;;1.52;70.67;95576.16;5114664;28;20890;-58
2022/12/22 03:59:51;;;;;;;1.33;1.33;;;;;;;1.17;72.56;95583.50;5114113;28;20943;-58
2022/12/22 04:02:19;;;;;;;1.37;1.13;;;;;;;1.00;73.63;95584.94;5114189;28;20424;-58
2022/12/22 04:04:48;;;;;;;0.77;0.77;;;;;;;0.27;74.77;95510.38;5114124;28;20435;-59
2022/12/22 04:07:17;;;;;;;1.00;1.00;;;;;;;0.39;76.41;95554.88;5114184;28;20412;-59
2022/12/22 04:15:14;;;;;;;0.40;0.40;;;;;;;0.91;75.49;95559.28;5113970;28;20451;-59
2022/12/22 04:17:42;;;;;;;1.03;0.97;;;;;;;0.98;75.11;95571.31;5114326;28;20420;-59
2022/12/22 04:20:11;;;;;;;7.63;0.77;;;;;;;1.05;74.58;95564.25;5114166;28;20459;-59
2022/12/22 04:22:41;;;;;;;1.93;0.60;;;;;;;1.15;74.38;95564.66;5113907;28;20435;-59
2022/12/22 04:25:10;;;;;;;0.40;0.40;;;;;;;1.33;72.72;95524.03;5113807;28;20424;-59
2022/12/22 04:27:38;;;;;;;0.50;0.40;;;;;;;1.82;71.58;95574.63;5113945;28;20864;-58
2022/12/22 04:30:08;;;;;;;2.13;1.70;;;;;;;1.63;72.33;95567.69;5114051;28;20434;-58
2022/12/22 04:32:36;;;;;;;1.67;1.57;;;;;;;1.50;72.01;95578.19;5113940;28;20470;-59
2022/12/22 04:35:08;;;;;;;1.40;1.40;;;;;;;1.39;71.95;95568.41;5113615;28;20426;-59
2022/12/22 04:37:36;;;;;;;0.77;0.77;;;;;;;1.26;73.40;95573.66;5113663;28;20507;-59
2022/12/22 04:40:07;;;;;;;1.20;1.00;;;;;;;0.83;74.23;95547.25;5113517;28;20923;-59
2022/12/22 04:42:35;;;;;;;0.40;0.40;;;;;;;1.12;74.30;95565.03;5113514;28;20427;-59
2022/12/22 04:45:07;;;;;;;0.43;0.43;;;;;;;1.48;72.73;95577.59;5113282;28;20471;-59
2022/12/22 04:47:35;;;;;;;2.10;2.00;;;;;;;1.39;72.79;95573.63;5113551;28;20412;-58
2022/12/22 04:50:04;;;;;;;0.90;0.90;;;;;;;1.36;72.16;95574.03;5113364;28;20494;-59
2022/12/22 04:52:50;;;;;;;1.90;0.90;;;;;;;1.20;72.19;95551.78;5113397;28;20421;-58
2022/12/22 04:55:20;;;;;;;0.60;0.60;;;;;;;1.26;72.46;95553.56;5113208;28;20423;-58
2022/12/22 04:57:48;;;;;;;2.00;1.90;;;;;;;0.16;72.76;95393.69;5112036;28;20460;-58
2022/12/22 05:00:18;;;;;;;0.43;0.43;;;;;;;1.35;72.30;95566.38;5113343;28;20510;-58
2022/12/22 05:02:46;;;;;;;0.43;0.43;;;;;;;1.02;73.47;95566.47;5113151;28;20432;-58
2022/12/22 05:05:15;;;;;;;0.30;0.20;;;;;;;0.98;73.77;95560.88;5113295;28;20519;-59
2022/12/22 05:07:43;;;;;;;0.50;0.50;;;;;;;0.84;73.64;95545.41;5112993;28;21137;-58
2022/12/22 05:10:11;;;;;;;0.47;0.47;;;;;;;0.31;74.64;95487.31;5113032;28;20432;-60
2022/12/22 05:12:56;;;;;;;0.53;0.53;;;;;;;0.83;75.04;95560.28;5113078;28;20479;-59
2022/12/22 05:15:26;;;;;;;0.90;0.67;;;;;;;0.84;74.42;95561.88;5112810;28;20436;-59
2022/12/22 05:17:55;;;;;;;1.67;1.57;;;;;;;0.17;75.06;95488.31;5112789;28;20424;-58
2022/12/22 05:20:24;;;;;;;3.23;0.90;;;;;;;0.63;75.48;95562.13;5112726;28;20447;-58
2022/12/22 05:22:52;;;;;;;2.07;1.53;;;;;;;0.46;76.94;95560.91;5112287;28;20492;-58
2022/12/22 05:25:20;;;;;;;1.57;1.57;;;;;;;0.61;76.74;95561.50;5112750;28;20867;-59
2022/12/22 05:27:51;;;;;;;1.03;0.93;;;;;;;0.38;76.88;95532.44;5113015;28;20416;-59
2022/12/22 05:30:20;;;;;;;2.03;1.93;;;;;;;-0.07;77.64;95466.25;5112912;28;20849;-58
2022/12/22 05:32:49;;;;;;;1.00;1.00;;;;;;;-0.15;77.39;95467.25;5112287;28;20790;-58
2022/12/22 05:35:18;;;;;;;1.13;1.13;;;;;;;0.64;76.99;95558.50;5112416;28;20426;-59
2022/12/22 05:37:49;;;;;;;0.77;0.77;;;;;;;0.71;76.41;95566.31;5112003;28;20435;-58
2022/12/22 05:40:20;;;;;;;1.90;1.43;;;;;;;0.50;77.84;95567.34;5112057;28;20477;-59
2022/12/22 05:42:50;;;;;;;0.93;0.93;;;;;;;0.66;77.13;95566.91;5112046;28;20431;-60
2022/12/22 05:45:20;;;;;;;0.93;0.70;;;;;;;0.66;77.08;95577.34;5112183;28;20452;-59
2022/12/22 05:47:51;;;;;;;3.13;1.27;;;;;;;0.94;75.77;95570.09;5112369;28;20453;-59
2022/12/22 05:50:23;;;;;;;1.57;1.57;;;;;;;0.76;75.29;95541.22;5111871;28;20463;-58
2022/12/22 05:52:51;;;;;;;0.50;0.50;;;;;;;0.18;75.49;95474.31;5112215;28;20431;-59
2022/12/22 05:55:19;;;;;;;1.00;1.00;;;;;;;0.34;75.70;95516.38;5112314;28;20432;-58
2022/12/22 05:57:48;;;;;;;1.80;1.73;;;;;;;0.80;75.54;95578.97;5112306;28;20432;-59
2022/12/22 06:00:19;;;;;;;2.20;2.10;;;;;;;1.13;75.79;95574.50;5112070;28;20474;-59
2022/12/22 06:02:47;;;;;;;0.73;0.73;;;;;;;1.40;74.17;95577.00;5112164;28;20461;-60
2022/12/22 06:05:15;;;;;;;2.60;2.50;;;;;;;1.56;74.73;95594.84;5112048;28;20945;-59
2022/12/22 06:07:44;;;;;;;1.07;1.07;;;;;;;1.65;74.03;95577.94;5111939;28;20438;-58
2022/12/22 06:10:13;;;;;;;3.53;3.23;;;;;;;1.58;72.90;95582.38;5111512;28;20539;-59
2022/12/22 06:12:42;;;;;;;1.80;0.90;;;;;;;1.63;72.23;95572.91;5112471;28;20423;-59
2022/12/22 06:15:13;;;;;;;2.20;2.17;;;;;;;1.83;73.30;95580.66;5111925;28;21072;-59
2022/12/22 06:17:43;;;;;;;1.50;1.03;;;;;;;0.55;73.05;95426.72;5111897;28;20430;-58
2022/12/22 06:20:13;;;;;;;1.97;1.83;;;;;;;1.65;72.87;95586.56;5112175;28;20457;-58
2022/12/22 06:22:42;;;;;;;2.30;2.10;;;;;;;1.70;72.14;95585.94;5112099;28;20432;-59
2022/12/22 06:25:10;;;;;;;34.00;2.47;;;;;;;1.15;72.62;95520.28;5111996;28;20416;-59
2022/12/22 06:27:46;;;;;;;3.33;1.47;;;;;;;1.77;71.77;95586.75;5111992;28;20436;-61
2022/12/22 06:30:15;;;;;;;1.63;1.53;;;;;;;1.68;72.66;95598.41;5112224;28;20432;-61
2022/12/22 06:32:45;;;;;;;2.63;2.40;;;;;;;1.57;73.33;95609.53;5111772;28;20486;-59
2022/12/22 06:35:13;;;;;;;3.50;3.30;;;;;;;0.28;73.49;95404.31;5111718;28;20536;-60
2022/12/22 06:37:41;;;;;;;5.20;4.80;;;;;;;1.73;73.65;95601.22;5111995;28;20455;-60
2022/12/22 06:40:11;;;;;;;5.97;4.13;;;;;;;1.94;72.33;95603.53;5111871;28;20455;-60
2022/12/22 06:45:35;;;;;;;17.40;6.10;;;;;;;1.61;71.77;95603.69;5111756;28;20428;-59
2022/12/22 06:48:05;;;;;;;7.90;7.40;;;;;;;1.85;71.91;95608.19;5111969;28;20445;-61
2022/12/22 06:50:33;;;;;;;21.47;7.03;;;;;;;1.39;71.32;95537.06;5111593;28;20476;-60
2022/12/22 06:53:03;;;;;;;5.93;4.00;;;;;;;1.76;71.85;95600.81;5111763;28;20415;-59
2022/12/22 06:55:32;;;;;;;4.30;2.10;;;;;;;3.01;69.44;95603.41;5111439;28;20562;-60
2022/12/22 06:58:00;;;;;;;3.37;3.17;;;;;;;3.14;67.54;95549.09;5111561;28;20847;-60
2022/12/22 07:00:29;;;;;;;1.13;1.03;;;;;;;4.62;64.89;95591.38;5111737;28;20451;-59
2022/12/22 07:02:57;;;;;;;2.70;2.60;;;;;;;4.98;62.91;95593.84;5111446;28;20446;-59
2022/12/22 07:05:29;;;;;;;3.00;1.90;;;;;;;4.88;62.12;95591.75;5111790;28;20440;-59
2022/12/22 07:07:57;;;;;;;6.80;1.13;;;;;;;4.58;62.28;95525.41;5111420;28;20938;-59
2022/12/22 07:13:22;;;;;;;0.60;0.60;;;;;;;5.05;62.54;95592.72;5111691;28;20444;-59
2022/12/22 07:15:52;;;;;;;1.20;1.20;;;;;;;5.48;60.97;95594.97;5111280;28;20472;-58
2022/12/22 07:18:28;;;;;;;5.23;1.83;;;;;;;5.92;59.37;95592.75;5111218;28;20434;-58
2022/12/22 07:20:58;;;;;;;2.33;2.23;;;;;;;5.90;58.27;95594.81;5111757;28;20547;-59
2022/12/22 07:23:27;;;;;;;7.83;0.80;;;;;;;6.07;59.41;95572.00;5115139;28;20776;-59
2022/12/22 07:25:55;;;;;;;1.53;0.63;;;;;;;5.40;57.20;95424.50;5115066;28;20428;-59
2022/12/22 07:28:24;;;;;;;0.83;0.83;;;;;;;6.25;57.32;95516.53;5115006;28;20426;-60
2022/12/22 07:30:53;;;;;;;1.87;1.80;;;;;;;6.94;55.72;95591.69;5114669;28;20468;-60
2022/12/22 07:33:22;;;;;;;2.87;2.77;;;;;;;6.82;56.10;95580.44;5114737;28;20802;-60
2022/12/22 07:36:03;;;;;;;3.43;3.23;;;;;;;7.34;55.16;95594.94;5114531;28;21166;-60
2022/12/22 07:38:34;;;;;;;4.50;3.53;;;;;;;7.49;54.29;95584.59;5114835;28;20450;-60
2022/12/22 07:41:02;;;;;;;2.20;2.13;;;;;;;7.69;53.89;95592.78;5114397;28;20437;-60
2022/12/22 07:43:31;;;;;;;8.23;1.63;;;;;;;8.21;52.52;95587.91;5114760;28;20427;-60
2022/12/22 07:46:00;;;;;;;7.50;2.90;;;;;;;8.10;52.43;95585.38;5114254;28;20522;-59
2022/12/22 07:51:15;;;;;;;4.80;3.00;;;;;;;8.36;51.93;95584.66;5113856;28;20787;-61
2022/12/22 07:53:43;;;;;;;2.10;1.93;;;;;;;8.28;51.72;95530.44;5113710;28;20519;-60
2022/12/22 07:56:11;;;;;;;3.60;2.90;;;;;;;9.22;50.85;95575.63;5114733;28;20767;-62
2022/12/22 07:58:40;;;;;;;3.53;1.63;;;;;;;9.13;50.28;95571.06;5114374;28;20422;-62
2022/12/22 08:01:08;;;;;;;5.70;3.10;;;;;;;9.71;48.94;95559.50;5114329;28;20504;-63
2022/12/22 08:03:36;;;;;;;7.40;3.90;;;;;;;9.71;50.03;95567.47;5114383;28;20432;-63
2022/12/22 08:06:05;;;;;;;13.80;2.90;;;;;;;9.91;49.32;95565.69;5114263;28;20428;-63
2022/12/22 08:08:35;;;;;;;4.23;2.67;;;;;;;10.04;48.54;95562.56;5113991;28;20986;-62
2022/12/22 08:11:04;;;;;;;11.63;3.83;;;;;;;10.50;47.54;95563.50;5113973;28;20513;-62
2022/12/22 08:13:33;;;;;;;9.53;4.43;;;;;;;10.28;47.35;95565.59;5114065;28;20516;-63
2022/12/22 08:16:04;;;;;;;6.57;2.90;;;;;;;10.45;46.30;95538.88;5114145;28;20876;-64
2022/12/22 08:18:33;;;;;;;7.53;3.10;;;;;;;10.81;44.77;95564.34;5113800;28;20435;-67
2022/12/22 08:21:02;;;;;;;2.60;2.10;;;;;;;11.26;45.90;95559.03;5113982;28;20774;-72
2022/12/22 08:23:31;;;;;;;2.43;2.23;;;;;;;11.41;44.75;95569.63;5113831;28;20472;-69
2022/12/22 08:26:06;;;;;;;5.30;4.50;;;;;;;11.42;44.45;95563.28;5114150;28;20422;-65
2022/12/22 08:28:37;;;;;;;1.90;1.80;;;;;;;11.30;44.69;95562.78;5113728;28;20582;-63
2022/12/22 08:31:05;;;;;;;1.93;1.83;;;;;;;11.12;45.81;95559.84;5113976;28;20428;-61
2022/12/22 08:33:34;;;;;;;2.17;2.03;;;;;;;10.66;44.76;95500.72;5113410;28;20415;-61
2022/12/22 08:36:03;;;;;;;2.77;1.90;;;;;;;10.83;45.95;95531.22;5113706;28;20945;-61
2022/12/22 08:38:36;;;;;;;4.60;4.27;;;;;;;11.57;45.29;95549.19;5113524;28;20851;-62
2022/12/22 08:41:07;;;;;;;2.53;2.43;;;;;;;12.08;43.89;95542.66;5113409;28;20522;-60
2022/12/22 08:43:36;;;;;;;2.90;2.70;;;;;;;12.44;43.15;95532.66;5113337;28;20467;-59
2022/12/22 08:46:04;;;;;;;1.43;1.33;;;;;;;12.62;43.05;95531.97;5113681;28;20771;-59
2022/12/22 08:48:32;;;;;;;2.37;2.27;;;;;;;12.78;42.65;95538.00;5113193;28;20543;-60
2022/12/22 08:51:01;;;;;;;13.30;2.93;;;;;;;12.92;42.74;95528.31;5113418;28;20432;-60
2022/12/22 08:53:29;;;;;;;3.97;3.67;;;;;;;13.10;43.02;95529.53;5113357;28;20465;-61
2022/12/22 08:56:19;;;;;;;6.23;2.97;;;;;;;13.40;42.19;95523.94;5113243;28;20497;-60
2022/12/22 08:58:47;;;;;;;7.53;4.43;;;;;;;13.31;42.44;95525.59;5113321;28;20416;-60
2022/12/22 09:01:17;;;;;;;2.50;2.40;;;;;;;13.31;41.10;95521.06;5113253;28;20432;-60
2022/12/22 09:03:49;;;;;;;2.57;1.60;;;;;;;13.06;40.58;95523.97;5113090;28;20428;-59
2022/12/22 09:06:18;;;;;;;2.17;2.07;;;;;;;13.57;40.21;95521.63;5113182;28;20511;-58
2022/12/22 09:08:55;;;;;;;8.03;3.40;;;;;;;13.19;39.90;95432.84;5113078;28;20427;-58
2022/12/22 09:11:25;;;;;;;8.27;2.57;;;;;;;14.59;39.21;95492.63;5113083;28;20428;-58
2022/12/22 09:13:56;;;;;;;2.00;1.80;;;;;;;14.08;38.94;95494.38;5112980;28;20428;-59
2022/12/22 09:16:25;;;;;;;2.70;2.60;;;;;;;14.18;39.06;95504.91;5113155;28;20499;-58
2022/12/22 09:18:55;;;;;;;2.93;2.57;;;;;;;14.71;38.16;95500.97;5112843;28;20419;-57
2022/12/22 09:21:25;;;;;;;2.90;2.73;;;;;;;14.87;38.62;95496.22;5112757;28;20428;-59
2022/12/22 09:23:54;;;;;;;5.60;5.07;;;;;;;14.99;37.47;95494.66;5111544;28;20467;-58
2022/12/22 09:26:26;;;;;;;4.57;2.50;;;;;;;14.34;37.81;95501.00;5112245;28;20434;-59
2022/12/22 09:28:55;;;;;;;2.50;2.30;;;;;;;14.53;37.82;95502.59;5112315;28;20430;-58
2022/12/22 09:31:25;;;;;;;6.47;3.40;;;;;;;14.43;37.68;95472.59;5112368;28;20447;-59
2022/12/22 09:33:54;;;;;;;3.63;3.33;;;;;;;15.03;37.12;95487.66;5112439;28;20524;-58
2022/12/22 09:36:24;;;;;;;1.97;1.77;;;;;;;15.41;36.35;95482.19;5112345;28;21091;-58
2022/12/22 09:38:53;;;;;;;4.80;4.60;;;;;;;15.51;36.22;95480.16;5112971;28;20834;-58
2022/12/22 09:41:30;;;;;;;2.80;2.27;;;;;;;17.81;33.54;95468.94;5112411;28;20456;-58
2022/12/22 09:44:03;;;;;;;2.93;1.63;;;;;;;17.50;33.10;95463.63;5111947;28;20930;-57
2022/12/22 09:46:34;;;;;;;1.80;1.70;;;;;;;16.91;32.52;95426.56;5111499;28;20432;-57
2022/12/22 09:49:05;;;;;;;2.93;2.27;;;;;;;17.39;33.15;95456.94;5112188;28;20921;-57
2022/12/22 09:51:39;;;;;;;5.33;4.00;;;;;;;17.25;32.91;95461.59;5112214;28;20435;-57
2022/12/22 09:54:11;;;;;;;2.10;2.00;;;;;;;18.07;32.37;95451.03;5112754;28;20915;-57
2022/12/22 09:56:41;;;;;;;3.03;1.63;;;;;;;18.41;31.89;95450.31;5112142;28;20504;-57
2022/12/22 09:59:11;;;;;;;2.50;2.40;;;;;;;19.49;29.47;95439.28;5112462;28;20432;-57
2022/12/22 10:01:56;;;;;;;2.90;2.80;;;;;;;18.44;31.54;95438.94;5112351;28;20773;-57
2022/12/22 10:04:39;;;;;;;2.10;1.97;;;;;;;18.56;30.77;95430.28;5112338;28;20445;-57
2022/12/22 10:07:16;;;;;;;1.43;1.33;;;;;;;19.26;29.61;95427.94;5112347;28;20420;-57
2022/12/22 10:09:45;;;;;;;3.10;2.90;;;;;;;19.28;29.40;95419.56;5112121;28;20436;-56
2022/12/22 10:12:20;;;;;;;1.63;1.53;;;;;;;19.32;29.29;95407.88;5111696;28;20428;-56
2022/12/22 10:14:50;;;;;;;2.37;2.27;;;;;;;19.27;28.99;95410.72;5111374;28;20427;-56
2022/12/22 10:17:22;;;;;;;1.70;1.60;;;;;;;19.37;29.48;95417.69;5111605;28;20528;-56
2022/12/22 10:19:53;;;;;;;6.50;3.17;;;;;;;18.93;29.13;95395.47;5112334;28;20447;-56
2022/12/22 10:22:29;;;;;;;3.60;2.53;;;;;;;18.96;29.37;95399.44;5111889;28;20432;-56
2022/12/22 10:25:00;;;;;;;2.20;1.90;;;;;;;18.16;29.33;95351.81;5111863;28;20833;-55
2022/12/22 10:27:33;;;;;;;3.50;2.53;;;;;;;18.60;28.74;95389.06;5112129;28;20435;-55
2022/12/22 10:30:19;;;;;;;1.57;1.50;;;;;;;18.29;29.18;95383.06;5112081;28;20429;-56
2022/12/22 10:33:05;;;;;;;1.10;1.10;;;;;;;18.84;28.62;95373.25;5112026;28;20420;-56
2022/12/22 10:35:52;;;;;;;5.13;1.87;;;;;;;19.31;29.15;95347.16;5111701;28;20431;-56
2022/12/22 10:38:25;;;;;;;2.33;1.90;;;;;;;18.89;28.29;95378.44;5111816;28;20431;-56
2022/12/22 10:40:56;;;;;;;1.33;1.23;;;;;;;20.01;27.51;95377.97;5111798;28;20428;-56
2022/12/22 10:43:35;;;;;;;1.70;1.60;;;;;;;19.95;27.66;95363.91;5111956;28;20432;-56
2022/12/22 10:46:06;;;;;;;0.80;0.80;;;;;;;20.11;28.65;95356.81;5111808;28;20431;-56
2022/12/22 10:48:38;;;;;;;8.30;1.53;;;;;;;21.31;29.18;95353.00;5111544;28;20415;-56
2022/12/22 10:51:08;;;;;;;0.80;0.77;;;;;;;21.15;26.70;95314.34;5111688;28;20489;-56
2022/12/22 10:53:45;;;;;;;1.27;1.17;;;;;;;19.63;27.95;95357.28;5111923;28;20444;-56
2022/12/22 10:56:23;;;;;;;2.07;1.97;;;;;;;20.46;29.75;95335.03;5114289;28;20551;-56
2022/12/22 10:58:56;;;;;;;2.20;2.10;;;;;;;20.92;27.13;95324.72;5115975;28;20459;-56
2022/12/22 11:01:31;;;;;;;3.10;1.63;;;;;;;19.78;27.08;95266.41;5115014;28;20430;-56
2022/12/22 11:04:16;;;;;;;1.00;0.80;;;;;;;20.53;27.20;95297.59;5115293;28;20441;-56
2022/12/22 11:06:45;;;;;;;6.77;2.93;;;;;;;20.03;27.65;95316.53;5115057;28;20435;-56
2022/12/22 11:09:14;;;;;;;6.30;1.63;;;;;;;21.21;27.31;95312.22;5115009;28;20518;-56
2022/12/22 11:12:07;;;;;;;4.03;1.90;;;;;;;20.75;27.05;95246.81;5115600;28;20770;-56
2022/12/22 11:14:51;;;;;;;3.60;2.83;;;;;;;20.34;27.04;95298.06;5114874;28;20522;-55
2022/12/22 11:17:30;;;;;;;3.97;2.03;;;;;;;20.08;28.07;95284.84;5114621;28;20507;-55
2022/12/22 11:20:17;;;;;;;3.63;1.73;;;;;;;20.29;27.37;95289.44;5114893;28;20480;-55
2022/12/22 11:22:53;;;;;;;1.53;1.37;;;;;;;19.99;27.23;95184.56;5114866;28;20542;-56
2022/12/22 11:25:37;;;;;;;5.53;1.23;;;;;;;21.35;26.22;95270.31;5115168;28;20768;-56
2022/12/22 11:28:28;;;;;;;3.40;1.87;;;;;;;20.41;27.13;95263.34;5114727;28;20530;-56
2022/12/22 11:31:18;;;;;;;2.70;2.00;;;;;;;20.82;27.03;95262.44;5114574;28;20602;-56
2022/12/22 11:34:02;;;;;;;4.13;3.00;;;;;;;20.74;27.26;95160.97;5114632;28;20472;-56
2022/12/22 11:36:45;;;;;;;3.50;1.40;;;;;;;22.86;25.44;95273.13;5114747;28;20464;-56
2022/12/22 11:39:18;;;;;;;1.63;1.43;;;;;;;21.94;25.88;95261.69;5114391;28;20503;-56
2022/12/22 11:42:05;;;;;;;1.73;1.63;;;;;;;22.65;24.79;95251.75;5114346;28;20424;-57
2022/12/22 11:44:47;;;;;;;5.30;3.20;;;;;;;21.77;26.13;95241.16;5114135;28;20439;-56
2022/12/22 11:47:26;;;;;;;4.00;3.63;;;;;;;21.53;26.87;95239.28;5114157;28;20527;-56
2022/12/22 11:50:18;;;;;;;2.13;1.90;;;;;;;21.06;26.67;95073.03;5113764;28;20514;-56
2022/12/22 11:53:32;;;;;;;3.67;1.93;;;;;;;21.75;25.70;95234.53;5114450;28;20428;-57
2022/12/22 11:56:21;;;;;;;2.03;1.93;;;;;;;20.70;26.45;95131.22;5114317;28;20534;-56
2022/12/22 11:59:40;;;;;;;3.33;1.97;;;;;;;20.28;26.49;95127.16;5114566;28;20808;-56
2022/12/22 12:02:53;;;;;;;2.10;2.00;;;;;;;21.10;26.53;95222.94;5113750;28;20424;-56
2022/12/22 12:06:00;;;;;;;4.47;3.23;;;;;;;20.41;26.48;95189.88;5087569;28;20454;-56
2022/12/22 12:08:42;;;;;;;7.93;2.30;;;;;;;20.62;26.74;95220.19;5109046;28;20454;-56
2022/12/22 12:11:25;;;;;;;6.60;1.63;;;;;;;19.87;27.38;95224.88;5113946;28;20436;-56
2022/12/22 12:14:13;;;;;;;1.93;1.80;;;;;;;21.54;26.03;95213.13;5114117;28;20547;-57
2022/12/22 12:17:05;;;;;;;1.87;1.80;;;;;;;20.93;26.07;95220.44;5113364;28;20489;-56
2022/12/22 12:20:01;;;;;;;3.07;2.87;;;;;;;20.64;26.77;95216.06;5114038;28;20594;-57
2022/12/22 12:23:01;;;;;;;2.10;2.00;;;;;;;20.26;27.68;95186.69;5110892;28;20435;-57
2022/12/22 12:25:45;;;;;;;2.43;2.23;;;;;;;20.22;27.93;95217.25;5113277;28;20432;-57
2022/12/22 12:28:24;;;;;;;4.47;1.70;;;;;;;19.27;27.35;94998.78;5113323;28;20480;-57
2022/12/22 12:31:04;;;;;;;1.47;1.27;;;;;;;21.91;26.38;95205.72;5113341;28;20431;-57
2022/12/22 12:33:44;;;;;;;2.60;2.40;;;;;;;20.99;26.54;95207.53;5113441;28;20455;-57
2022/12/22 12:36:25;;;;;;;1.57;1.40;;;;;;;20.19;26.81;95170.28;5113092;28;20428;-57
2022/12/22 12:39:04;;;;;;;2.63;1.77;;;;;;;20.37;27.05;95149.38;5113475;28;20499;-58
2022/12/22 12:42:04;;;;;;;0.90;0.90;;;;;;;22.15;25.63;95200.22;5113592;28;20416;-57
2022/12/22 12:44:35;;;;;;;7.60;1.57;;;;;;;20.94;26.63;95203.16;5112983;28;20947;-57
2022/12/22 12:47:23;;;;;;;1.83;1.73;;;;;;;21.33;25.71;95202.47;5113280;28;20988;-57
2022/12/22 12:50:31;;;;;;;2.10;1.17;;;;;;;20.41;27.08;95181.78;5112737;28;20860;-57
2022/12/22 12:53:08;;;;;;;2.50;2.40;;;;;;;20.49;26.75;95200.53;5112840;28;20461;-58
2022/12/22 12:55:55;;;;;;;3.77;1.50;;;;;;;20.29;26.50;95171.00;5113110;28;20474;-57
2022/12/22 12:58:56;;;;;;;1.50;1.40;;;;;;;20.83;25.82;95202.03;5098395;28;20491;-57
2022/12/22 13:02:04;;;;;;;1.50;0.93;;;;;;;21.53;25.83;95201.53;5113089;28;20837;-57
2022/12/22 13:05:00;;;;;;;1.77;1.00;;;;;;;20.97;26.38;95197.09;5112995;28;20442;-58
2022/12/22 13:08:06;;;;;;;3.87;1.23;;;;;;;20.77;26.46;95192.63;5113352;28;20459;-58
2022/12/22 13:10:36;;;;;;;1.30;1.30;;;;;;;21.11;25.93;95196.78;5113006;28;20452;-57
2022/12/22 13:13:10;;;;;;;3.27;2.90;;;;;;;21.52;25.51;95189.19;5112825;28;20428;-58
2022/12/22 13:15:41;;;;;;;6.43;2.70;;;;;;;20.43;26.90;95195.69;5112917;28;20420;-58
2022/12/22 13:18:40;;;;;;;1.87;1.77;;;;;;;20.14;26.35;95196.59;5112387;28;20533;-58
2022/12/22 13:21:21;;;;;;;1.60;1.50;;;;;;;20.86;26.03;95195.97;5112564;28;20428;-58
2022/12/22 13:24:21;;;;;;;7.03;1.53;;;;;;;22.07;25.21;95201.16;5112278;28;20792;-58
2022/12/22 13:26:55;;;;;;;1.00;1.00;;;;;;;21.24;25.53;95190.25;5112927;28;20435;-58
2022/12/22 13:29:33;;;;;;;0.77;0.60;;;;;;;21.46;25.47;95136.63;5112390;28;20455;-58
2022/12/22 13:32:04;;;;;;;2.13;2.03;;;;;;;20.97;26.62;95167.47;5112488;28;20424;-57
2022/12/22 13:34:40;;;;;;;3.00;2.53;;;;;;;19.53;28.35;95164.09;5112545;28;20431;-57
2022/12/22 13:37:29;;;;;;;3.70;1.17;;;;;;;19.98;28.78;95195.66;5112156;28;20471;-57
2022/12/22 13:40:09;;;;;;;8.63;2.20;;;;;;;18.52;29.55;95203.88;5112009;28;20436;-58
2022/12/22 13:42:40;;;;;;;3.07;2.97;;;;;;;16.53;31.19;95161.28;5112446;28;20801;-58
2022/12/22 13:45:18;;;;;;;2.83;2.30;;;;;;;16.42;32.47;95200.06;5112115;28;20428;-59
2022/12/22 13:47:48;;;;;;;4.97;4.43;;;;;;;16.43;32.38;95204.31;5112441;28;20852;-59
2022/12/22 13:50:20;;;;;;;4.77;1.53;;;;;;;15.35;33.20;95179.72;5111762;28;20463;-59
2022/12/22 13:52:51;;;;;;;2.17;2.03;;;;;;;15.22;33.44;95200.03;5112112;28;20999;-58
2022/12/22 13:55:25;;;;;;;2.03;1.93;;;;;;;14.77;33.59;95203.69;5112012;28;20456;-57
2022/12/22 13:57:55;;;;;;;1.60;1.50;;;;;;;13.53;35.65;95198.41;5112073;28;20510;-56
2022/12/22 14:00:29;;;;;;;3.83;3.47;;;;;;;12.43;37.06;95148.28;5112134;28;20424;-58
2022/12/22 14:02:58;;;;;;;3.37;3.20;;;;;;;12.56;38.21;95202.63;5111901;28;20416;-59
2022/12/22 14:05:31;;;;;;;5.03;2.23;;;;;;;13.33;37.17;95204.03;5111780;28;20944;-60
2022/12/22 14:08:01;;;;;;;10.60;3.33;;;;;;;12.05;37.82;95197.06;5111975;28;20416;-59
2022/12/22 14:10:34;;;;;;;5.23;4.90;;;;;;;11.80;38.78;95189.34;5110844;28;20428;-60
2022/12/22 14:13:07;;;;;;;7.77;3.50;;;;;;;11.03;39.83;95208.72;5112106;28;20427;-59
2022/12/22 14:15:36;;;;;;;9.63;5.27;;;;;;;11.02;40.15;95201.81;5111595;28;20432;-58
2022/12/22 14:18:05;;;;;;;7.00;3.80;;;;;;;10.76;41.30;95203.81;5111457;28;20486;-59
2022/12/22 14:20:35;;;;;;;4.73;2.23;;;;;;;11.10;40.66;95201.25;5111976;28;20424;-60
2022/12/22 14:23:07;;;;;;;2.70;2.60;;;;;;;11.12;39.75;95196.47;5112033;28;20854;-61
2022/12/22 14:25:38;;;;;;;2.10;1.30;;;;;;;10.47;41.17;95208.19;5111561;28;20431;-64
2022/12/22 14:28:15;;;;;;;1.23;1.20;;;;;;;10.73;40.63;95132.78;5111453;28;20408;-66
2022/12/22 14:30:48;;;;;;;2.40;2.30;;;;;;;11.08;39.76;95201.50;5115564;28;20526;-70
2022/12/22 14:33:28;;;;;;;1.20;1.20;;;;;;;11.65;39.57;95200.84;5116173;28;20464;-68
2022/12/22 14:36:14;;;;;;;4.10;2.70;;;;;;;10.88;40.42;95204.28;5115977;28;20423;-68
2022/12/22 14:38:46;;;;;;;1.60;1.03;;;;;;;10.67;40.54;95134.69;5115832;28;20546;-68
2022/12/22 14:44:11;;;;;;;2.20;2.10;;;;;;;10.13;40.26;95137.31;5104269;28;20798;-69
2022/12/22 14:46:41;;;;;;;4.07;3.37;;;;;;;9.34;42.54;95203.28;5115489;28;20533;-68
2022/12/22 14:49:15;;;;;;;13.43;5.60;;;;;;;9.20;43.18;95209.38;5115442;28;20481;-67
2022/12/22 14:51:43;;;;;;;5.37;5.07;;;;;;;8.78;44.08;95207.69;5115634;28;20425;-66
2022/12/22 14:54:21;;;;;;;4.80;4.47;;;;;;;8.97;43.39;95209.84;5115313;28;20456;-66
2022/12/22 14:56:52;;;;;;;5.33;4.93;;;;;;;8.45;44.42;95205.44;5115369;28;20424;-64
2022/12/22 14:59:25;;;;;;;3.10;3.00;;;;;;;8.32;44.04;95219.16;5114957;28;20534;-63
2022/12/22 15:02:01;;;;;;;6.07;2.70;;;;;;;8.60;44.53;95216.06;5115127;28;20433;-62
2022/12/22 15:04:30;;;;;;;2.63;2.40;;;;;;;8.76;45.17;95215.09;5115397;28;20469;-62
2022/12/22 15:07:17;;;;;;;1.47;1.10;;;;;;;9.46;43.68;95211.75;5115102;28;20419;-62
2022/12/22 15:10:07;;;;;;;2.30;2.20;;;;;;;9.82;42.96;95215.19;5115108;28;20451;-61
2022/12/22 15:12:45;;;;;;;7.40;1.03;;;;;;;9.56;43.11;95221.56;5115208;28;20423;-60
2022/12/22 15:15:16;;;;;;;1.07;0.60;;;;;;;9.74;43.58;95223.66;5114957;28;20423;-62
2022/12/22 15:17:51;;;;;;;0.67;0.67;;;;;;;10.14;45.62;95217.56;5115092;28;20922;-60
2022/12/22 15:20:22;;;;;;;1.17;1.17;;;;;;;9.67;45.68;95170.22;5114952;28;20506;-61
2022/12/22 15:22:51;;;;;;;2.13;1.77;;;;;;;9.41;42.56;95208.34;5114758;28;20448;-61
2022/12/22 15:25:21;;;;;;;1.73;1.63;;;;;;;9.23;41.88;95224.72;5113688;28;20506;-61
2022/12/22 15:27:50;;;;;;;3.97;3.67;;;;;;;8.31;43.14;95209.63;5113533;28;20824;-61
2022/12/22 15:30:21;;;;;;;6.87;3.87;;;;;;;7.71;45.45;95233.00;5113791;28;20759;-60
2022/12/22 15:32:56;;;;;;;2.23;2.10;;;;;;;7.50;46.62;95230.19;5114710;28;20810;-60
2022/12/22 15:35:29;;;;;;;7.97;5.80;;;;;;;7.46;46.92;95229.09;5114646;28;20801;-61
2022/12/22 15:37:57;;;;;;;16.13;6.17;;;;;;;7.60;47.14;95235.56;5114314;28;20492;-59
2022/12/22 15:40:26;;;;;;;1.37;1.27;;;;;;;6.44;46.51;95038.81;5114385;28;20433;-60
2022/12/22 15:42:55;;;;;;;3.30;2.90;;;;;;;7.53;46.05;95236.81;5113307;28;20525;-60
2022/12/22 15:45:23;;;;;;;4.67;3.17;;;;;;;8.07;44.87;95234.81;5114390;28;20510;-60
2022/12/22 15:47:53;;;;;;;1.20;1.10;;;;;;;8.31;43.90;95225.47;5114516;28;20442;-60
2022/12/22 15:50:27;;;;;;;4.83;4.20;;;;;;;7.73;44.82;95241.44;5114162;28;20488;-61
2022/12/22 15:53:05;;;;;;;3.63;3.33;;;;;;;7.48;45.30;95220.94;5114549;28;20927;-61
2022/12/22 15:55:36;;;;;;;5.90;3.87;;;;;;;7.21;45.26;95242.06;5114081;28;20980;-60
2022/12/22 15:58:04;;;;;;;10.33;3.47;;;;;;;6.81;46.60;95249.56;5114027;28;20944;-60